createdAt,value
2022-12-24T00:01:19.298Z,5.65
2022-12-24T00:03:46.750Z,5.80
2022-12-24T00:06:18.255Z,5.00
2022-12-24T00:08:45.442Z,5.22
2022-12-24T00:11:12.732Z,7.28
2022-12-24T00:13:39.968Z,4.93
2022-12-24T00:16:07.304Z,4.50
2022-12-24T00:18:37.450Z,4.47
2022-12-24T00:23:34.386Z,7.55
2022-12-24T00:26:01.550Z,5.15
2022-12-24T00:28:28.790Z,5.97
2022-12-24T00:30:56.038Z,4.82
2022-12-24T00:33:24.840Z,6.50
2022-12-24T00:35:53.169Z,5.20
2022-12-24T00:38:20.404Z,6.93
2022-12-24T00:40:47.642Z,4.15
2022-12-24T00:43:14.861Z,5.00
2022-12-24T00:45:42.097Z,5.13
2022-12-24T00:48:09.347Z,4.88
2022-12-24T00:50:36.515Z,4.65
2022-12-24T00:53:04.910Z,5.72
2022-12-24T00:55:32.386Z,4.82
2022-12-24T00:57:59.577Z,5.78
2022-12-24T01:00:26.759Z,4.32
2022-12-24T01:02:54.108Z,5.68
2022-12-24T01:05:23.083Z,4.55
2022-12-24T01:07:50.281Z,6.72
2022-12-24T01:10:18.982Z,6.70
2022-12-24T01:12:46.510Z,4.88
2022-12-24T01:15:14.594Z,4.18
2022-12-24T01:17:41.969Z,6.10
2022-12-24T01:20:10.579Z,5.55
2022-12-24T01:22:37.744Z,4.88
2022-12-24T01:25:05.077Z,6.20
2022-12-24T01:27:33.221Z,6.25
2022-12-24T01:30:00.406Z,6.07
2022-12-24T01:32:27.566Z,5.75
2022-12-24T01:34:54.988Z,4.28
2022-12-24T01:37:22.131Z,5.07
2022-12-24T01:39:49.255Z,7.15
2022-12-24T01:42:39.361Z,4.57
2022-12-24T01:45:25.498Z,6.05
2022-12-24T01:47:52.664Z,4.85
2022-12-24T01:50:19.853Z,4.05
2022-12-24T01:52:47.065Z,5.95
2022-12-24T01:55:16.757Z,5.20
2022-12-24T01:57:46.652Z,5.45
2022-12-24T02:00:15.338Z,4.15
2022-12-24T02:02:44.426Z,4.55
2022-12-24T02:05:15.114Z,4.60
2022-12-24T02:07:42.770Z,4.57
2022-12-24T02:10:12.040Z,3.58
2022-12-24T02:12:39.924Z,4.53
2022-12-24T02:15:09.374Z,3.58
2022-12-24T02:17:55.402Z,4.65
2022-12-24T02:20:31.896Z,5.10
2022-12-24T02:23:17.620Z,5.50
2022-12-24T02:26:02.914Z,6.35
2022-12-24T02:28:36.237Z,6.13
2022-12-24T02:31:06.580Z,4.97
2022-12-24T02:33:36.591Z,5.18
2022-12-24T02:36:03.713Z,5.75
2022-12-24T02:38:35.726Z,6.35
2022-12-24T02:41:04.549Z,4.75
2022-12-24T02:43:36.361Z,4.53
2022-12-24T02:46:11.886Z,5.50
2022-12-24T02:48:40.930Z,5.70
2022-12-24T02:51:09.442Z,4.03
2022-12-24T02:53:36.913Z,5.47
2022-12-24T02:56:22.763Z,5.60
2022-12-24T02:58:49.913Z,8.45
2022-12-24T03:01:29.233Z,5.35
2022-12-24T03:04:05.604Z,6.07
2022-12-24T03:06:41.904Z,5.45
2022-12-24T03:09:25.100Z,5.18
2022-12-24T03:11:58.771Z,5.47
2022-12-24T03:14:27.047Z,5.18
2022-12-24T03:16:54.301Z,4.57
2022-12-24T03:19:22.675Z,4.60
2022-12-24T03:21:50.535Z,5.40
2022-12-24T03:24:17.779Z,5.45
2022-12-24T03:26:46.835Z,6.05
2022-12-24T03:29:14.276Z,4.40
2022-12-24T03:31:45.898Z,5.93
2022-12-24T03:34:13.645Z,5.17
2022-12-24T03:36:41.163Z,7.35
2022-12-24T03:39:09.341Z,5.35
2022-12-24T03:41:37.109Z,4.38
2022-12-24T03:44:04.775Z,4.53
2022-12-24T03:46:32.052Z,5.72
2022-12-24T03:48:59.346Z,4.32
2022-12-24T03:51:26.742Z,4.57
2022-12-24T03:53:54.448Z,5.03
2022-12-24T03:56:21.966Z,4.63
2022-12-24T03:58:49.172Z,4.18
2022-12-24T04:01:17.199Z,4.05
2022-12-24T04:03:44.826Z,4.93
2022-12-24T04:06:17.690Z,3.75
2022-12-24T04:08:45.174Z,4.30
2022-12-24T04:11:13.726Z,4.45
2022-12-24T04:13:40.912Z,4.32
2022-12-24T04:16:09.930Z,4.22
2022-12-24T04:18:37.706Z,4.50
2022-12-24T04:21:05.212Z,4.10
2022-12-24T04:23:32.994Z,5.97
2022-12-24T04:26:00.780Z,4.38
2022-12-24T04:28:29.672Z,5.22
2022-12-24T04:31:00.848Z,4.25
2022-12-24T04:33:28.172Z,5.35
2022-12-24T04:35:55.659Z,4.57
2022-12-24T04:38:22.800Z,5.28
2022-12-24T04:40:50.002Z,5.20
2022-12-24T04:43:17.137Z,4.38
2022-12-24T04:45:44.361Z,6.03
2022-12-24T04:48:11.598Z,5.15
2022-12-24T04:50:38.762Z,4.20
2022-12-24T04:53:05.984Z,5.00
2022-12-24T04:55:33.221Z,3.92
2022-12-24T04:58:00.397Z,5.85
2022-12-24T05:00:27.576Z,5.13
2022-12-24T05:02:54.850Z,3.85
2022-12-24T05:05:22.172Z,2.95
2022-12-24T05:07:49.397Z,3.90
2022-12-24T05:10:16.549Z,3.80
2022-12-24T05:12:43.752Z,4.65
2022-12-24T05:15:10.921Z,2.42
2022-12-24T05:17:38.089Z,4.30
2022-12-24T05:20:05.454Z,4.07
2022-12-24T05:22:51.398Z,3.88
2022-12-24T05:25:37.235Z,5.25
2022-12-24T05:28:04.402Z,4.10
2022-12-24T05:30:31.598Z,4.15
2022-12-24T05:32:58.908Z,3.58
2022-12-24T05:35:26.141Z,3.42
2022-12-24T05:37:53.272Z,5.95
2022-12-24T05:40:20.439Z,3.55
2022-12-24T05:42:47.578Z,3.75
2022-12-24T05:45:14.833Z,4.05
2022-12-24T05:47:43.632Z,4.60
2022-12-24T05:50:11.547Z,3.22
2022-12-24T05:52:38.766Z,5.97
2022-12-24T05:55:06.181Z,3.45
2022-12-24T05:57:33.388Z,3.33
2022-12-24T06:00:00.615Z,2.78
2022-12-24T06:02:27.831Z,4.63
2022-12-24T06:04:55.091Z,4.60
2022-12-24T06:07:22.413Z,3.75
2022-12-24T06:09:49.784Z,3.55
2022-12-24T06:12:17.022Z,2.88
2022-12-24T06:14:44.187Z,3.35
2022-12-24T06:17:11.342Z,4.15
2022-12-24T06:19:38.490Z,5.35
2022-12-24T06:22:05.653Z,4.57
2022-12-24T06:24:32.803Z,3.78
2022-12-24T06:26:59.934Z,4.47
2022-12-24T06:29:27.540Z,2.92
2022-12-24T06:31:54.771Z,4.88
2022-12-24T06:34:22.048Z,3.97
2022-12-24T06:36:49.324Z,5.47
2022-12-24T06:39:16.482Z,3.58
2022-12-24T06:41:43.859Z,4.90
2022-12-24T06:44:11.265Z,5.57
2022-12-24T06:46:38.863Z,4.32
2022-12-24T06:49:06.140Z,3.08
2022-12-24T06:51:33.321Z,4.53
2022-12-24T06:54:00.534Z,3.70
2022-12-24T06:56:27.759Z,3.50
2022-12-24T06:58:58.753Z,4.43
2022-12-24T07:01:28.841Z,3.22
2022-12-24T07:03:56.188Z,2.58
2022-12-24T07:06:25.816Z,4.97
2022-12-24T07:08:53.277Z,3.67
2022-12-24T07:11:20.663Z,2.70
2022-12-24T07:13:48.185Z,2.33
2022-12-24T07:16:15.796Z,4.43
2022-12-24T07:18:43.067Z,2.13
2022-12-24T07:21:10.857Z,3.33
2022-12-24T07:23:38.158Z,2.95
2022-12-24T07:26:06.684Z,3.58
2022-12-24T07:28:34.131Z,3.38
2022-12-24T07:31:01.442Z,3.40
2022-12-24T07:33:28.880Z,1.42
2022-12-24T07:36:00.513Z,2.72
2022-12-24T07:38:28.076Z,2.78
2022-12-24T07:40:55.295Z,2.58
2022-12-24T07:43:22.517Z,2.92
2022-12-24T07:45:49.667Z,2.78
2022-12-24T07:48:16.880Z,3.53
2022-12-24T07:50:44.205Z,2.50
2022-12-24T07:53:11.444Z,4.40
2022-12-24T07:55:38.660Z,2.42
2022-12-24T07:58:05.860Z,3.10
2022-12-24T08:00:33.151Z,2.47
2022-12-24T08:03:00.632Z,3.45
2022-12-24T08:05:28.297Z,2.63
2022-12-24T08:07:56.133Z,3.00
2022-12-24T08:10:23.384Z,3.25
2022-12-24T08:12:50.633Z,4.15
2022-12-24T08:15:18.056Z,3.25
2022-12-24T08:17:45.330Z,2.00
2022-12-24T08:20:12.695Z,2.85
2022-12-24T08:22:39.905Z,2.72
2022-12-24T08:25:07.406Z,3.97
2022-12-24T08:27:34.556Z,2.17
2022-12-24T08:30:01.725Z,2.92
2022-12-24T08:32:28.857Z,3.58
2022-12-24T08:34:56.023Z,3.35
2022-12-24T08:37:23.223Z,1.88
2022-12-24T08:39:50.403Z,2.08
2022-12-24T08:42:17.678Z,2.25
2022-12-24T08:44:44.971Z,2.92
2022-12-24T08:47:12.195Z,3.10
2022-12-24T08:49:40.085Z,2.65
2022-12-24T08:52:07.537Z,3.30
2022-12-24T08:54:34.796Z,3.97
2022-12-24T08:57:01.927Z,2.58
2022-12-24T08:59:29.128Z,2.78
2022-12-24T09:01:56.503Z,2.75
2022-12-24T09:04:23.855Z,2.80
2022-12-24T09:06:51.048Z,3.80
2022-12-24T09:09:18.284Z,3.55
2022-12-24T09:11:45.444Z,3.13
2022-12-24T09:14:12.739Z,5.70
2022-12-24T09:16:40.110Z,2.67
2022-12-24T09:19:07.314Z,2.65
2022-12-24T09:21:34.472Z,4.72
2022-12-24T09:24:01.790Z,2.95
2022-12-24T09:26:30.098Z,3.92
2022-12-24T09:28:57.857Z,4.18
2022-12-24T09:31:25.134Z,2.83
2022-12-24T09:33:52.398Z,2.47
2022-12-24T09:36:20.350Z,3.38
2022-12-24T09:38:47.672Z,3.90
2022-12-24T09:41:33.857Z,3.55
2022-12-24T09:44:08.875Z,2.40
2022-12-24T09:46:38.470Z,3.35
2022-12-24T09:49:09.477Z,4.20
2022-12-24T09:51:41.904Z,3.67
2022-12-24T09:54:13.746Z,3.58
2022-12-24T09:56:42.396Z,3.63
2022-12-24T09:59:17.317Z,3.40
2022-12-24T10:01:44.752Z,4.72
2022-12-24T10:04:14.476Z,3.95
2022-12-24T10:06:50.774Z,3.35
2022-12-24T10:09:30.018Z,4.40
2022-12-24T10:12:16.078Z,4.18
2022-12-24T10:14:43.298Z,4.40
2022-12-24T10:17:25.843Z,4.57
2022-12-24T10:19:55.735Z,5.82
2022-12-24T10:22:32.293Z,3.80
2022-12-24T10:25:10.640Z,3.95
2022-12-24T10:27:42.293Z,4.53
2022-12-24T10:30:20.410Z,5.18
2022-12-24T10:32:51.931Z,4.80
2022-12-24T10:35:35.673Z,5.15
2022-12-24T10:38:04.351Z,7.20
2022-12-24T10:40:43.050Z,3.50
2022-12-24T10:43:18.584Z,4.88
2022-12-24T10:45:50.941Z,3.35
2022-12-24T10:48:38.384Z,4.10
2022-12-24T10:51:07.785Z,3.63
2022-12-24T10:53:34.977Z,4.78
2022-12-24T10:56:04.326Z,3.35
2022-12-24T10:58:31.576Z,3.30
2022-12-24T11:00:58.864Z,3.78
2022-12-24T11:03:36.381Z,3.50
2022-12-24T11:06:08.558Z,4.38
2022-12-24T11:08:36.369Z,3.65
2022-12-24T11:11:05.773Z,3.08
2022-12-24T11:13:41.568Z,3.72
2022-12-24T11:16:16.334Z,3.40
2022-12-24T11:18:51.376Z,4.05
2022-12-24T11:21:20.359Z,3.75
2022-12-24T11:23:58.456Z,4.43
2022-12-24T11:26:27.545Z,3.33
2022-12-24T11:29:14.476Z,3.47
2022-12-24T11:31:42.443Z,3.20
2022-12-24T11:34:22.484Z,3.50
2022-12-24T11:36:50.633Z,2.95
2022-12-24T11:39:22.506Z,3.17
2022-12-24T11:41:53.274Z,2.97
2022-12-24T11:44:25.323Z,2.95
2022-12-24T11:46:56.704Z,3.58
2022-12-24T11:49:27.053Z,2.67
2022-12-24T11:52:12.764Z,3.67
2022-12-24T11:55:00.689Z,3.92
2022-12-24T11:57:32.033Z,3.40
2022-12-24T11:59:59.277Z,3.20
2022-12-24T12:02:28.627Z,4.15
2022-12-24T12:05:03.985Z,2.92
2022-12-24T12:07:32.210Z,3.45
2022-12-24T12:10:08.167Z,4.13
2022-12-24T12:12:36.674Z,2.38
2022-12-24T12:15:12.199Z,4.05
2022-12-24T12:17:39.352Z,3.10
2022-12-24T12:20:19.686Z,3.72
2022-12-24T12:23:09.562Z,4.25
2022-12-24T12:25:39.020Z,3.92
2022-12-24T12:28:09.006Z,3.35
2022-12-24T12:30:36.542Z,3.92
2022-12-24T12:33:20.129Z,3.58
2022-12-24T12:35:47.873Z,3.70
2022-12-24T12:38:20.306Z,3.45
2022-12-24T12:41:01.945Z,3.72
2022-12-24T12:43:41.043Z,4.95
2022-12-24T12:46:26.786Z,4.05
2022-12-24T12:49:06.293Z,2.80
2022-12-24T12:51:38.832Z,3.15
2022-12-24T12:54:13.374Z,3.33
2022-12-24T12:56:44.442Z,4.57
2022-12-24T12:59:15.528Z,3.33
2022-12-24T13:01:46.215Z,4.53
2022-12-24T13:04:32.405Z,4.18
2022-12-24T13:06:59.568Z,3.50
2022-12-24T13:09:26.726Z,3.72
2022-12-24T13:12:15.890Z,4.15
2022-12-24T13:14:43.043Z,3.40
2022-12-24T13:17:19.088Z,3.08
2022-12-24T13:19:49.005Z,3.67
2022-12-24T13:22:22.081Z,3.80
2022-12-24T13:24:52.257Z,4.15
2022-12-24T13:27:21.765Z,3.78
2022-12-24T13:29:53.553Z,4.57
2022-12-24T13:32:20.689Z,2.70
2022-12-24T13:34:50.658Z,4.50
2022-12-24T13:37:21.969Z,4.18
2022-12-24T13:40:09.598Z,4.35
2022-12-24T13:42:48.914Z,4.25
2022-12-24T13:45:42.735Z,3.95
2022-12-24T13:48:09.916Z,4.30
2022-12-24T13:50:43.269Z,3.70
2022-12-24T13:53:23.431Z,3.97
2022-12-24T13:55:52.215Z,2.80
2022-12-24T13:58:22.860Z,3.15
2022-12-24T14:00:56.553Z,4.15
2022-12-24T14:03:23.884Z,2.63
2022-12-24T14:05:53.100Z,4.50
2022-12-24T14:08:34.802Z,4.30
2022-12-24T14:11:37.985Z,3.47
2022-12-24T14:14:05.446Z,3.53
2022-12-24T14:16:42.027Z,3.92
2022-12-24T14:19:28.093Z,3.88
2022-12-24T14:22:04.540Z,3.13
2022-12-24T14:24:36.359Z,4.63
2022-12-24T14:27:25.532Z,3.47
2022-12-24T14:30:08.735Z,3.83
2022-12-24T14:32:36.992Z,4.07
2022-12-24T14:35:08.739Z,4.35
2022-12-24T14:37:36.292Z,4.78
2022-12-24T14:40:03.572Z,3.72
2022-12-24T14:42:42.013Z,4.70
2022-12-24T14:45:17.777Z,4.75
2022-12-24T14:47:47.950Z,4.55
2022-12-24T14:50:53.580Z,3.42
2022-12-24T14:53:32.655Z,4.70
2022-12-24T14:55:59.932Z,3.97
2022-12-24T14:58:34.264Z,4.65
2022-12-24T15:01:03.078Z,3.53
2022-12-24T15:03:33.343Z,4.70
2022-12-24T15:06:02.596Z,3.60
2022-12-24T15:08:38.741Z,4.20
2022-12-24T15:11:07.828Z,4.68
2022-12-24T15:13:41.390Z,3.78
2022-12-24T15:16:09.725Z,3.88
2022-12-24T15:18:38.669Z,3.58
2022-12-24T15:21:07.889Z,4.63
2022-12-24T15:23:38.461Z,3.80
2022-12-24T15:26:15.553Z,3.20
2022-12-24T15:28:42.862Z,4.03
2022-12-24T15:31:29.490Z,4.65
2022-12-24T15:33:57.535Z,5.53
2022-12-24T15:36:26.682Z,4.25
2022-12-24T15:38:55.829Z,3.45
2022-12-24T15:41:25.141Z,4.03
2022-12-24T15:43:53.762Z,4.10
2022-12-24T15:46:21.023Z,4.63
2022-12-24T15:48:49.140Z,3.63
2022-12-24T15:51:22.627Z,4.70
2022-12-24T15:53:50.273Z,4.13
2022-12-24T15:56:34.906Z,4.40
2022-12-24T15:59:36.113Z,4.00
2022-12-24T16:02:27.331Z,4.43
2022-12-24T16:04:54.712Z,3.58
2022-12-24T16:07:25.596Z,3.25
2022-12-24T16:10:12.788Z,3.47
2022-12-24T16:12:40.297Z,4.25
2022-12-24T16:15:15.358Z,4.28
2022-12-24T16:17:48.512Z,2.83
2022-12-24T16:20:20.903Z,3.63
2022-12-24T16:22:49.146Z,2.40
2022-12-24T16:25:20.910Z,4.38
2022-12-24T16:27:48.041Z,4.93
2022-12-24T16:30:15.294Z,3.78
2022-12-24T16:32:42.581Z,3.55
2022-12-24T16:35:39.232Z,2.50
2022-12-24T16:38:06.364Z,3.38
2022-12-24T16:40:33.557Z,2.13
2022-12-24T16:43:19.565Z,3.05
2022-12-24T16:45:47.507Z,3.88
2022-12-24T16:48:19.750Z,3.10
2022-12-24T16:50:47.027Z,2.97
2022-12-24T16:53:18.470Z,3.78
2022-12-24T16:55:47.543Z,2.42
2022-12-24T16:58:15.893Z,3.97
2022-12-24T17:00:43.236Z,2.22
2022-12-24T17:03:10.503Z,3.13
2022-12-24T17:05:38.896Z,2.17
2022-12-24T17:08:06.727Z,2.60
2022-12-24T17:10:34.397Z,1.73
2022-12-24T17:13:01.670Z,2.22
2022-12-24T17:15:29.016Z,3.65
2022-12-24T17:17:56.282Z,2.47
2022-12-24T17:20:24.497Z,2.85
2022-12-24T17:22:52.005Z,1.50
2022-12-24T17:25:19.236Z,2.90
2022-12-24T17:27:46.440Z,3.97
2022-12-24T17:30:13.836Z,1.85
2022-12-24T17:32:41.074Z,2.67
2022-12-24T17:35:08.606Z,4.57
2022-12-24T17:37:35.772Z,1.90
2022-12-24T17:40:02.988Z,2.78
2022-12-24T17:42:30.209Z,2.65
2022-12-24T17:44:57.469Z,2.22
2022-12-24T17:47:24.624Z,2.53
2022-12-24T17:49:51.869Z,1.83
2022-12-24T17:52:19.114Z,2.65
2022-12-24T17:54:46.331Z,2.30
2022-12-24T17:57:13.583Z,1.77
2022-12-24T17:59:40.734Z,1.35
2022-12-24T18:02:08.332Z,0.95
2022-12-24T18:04:35.617Z,1.20
2022-12-24T18:07:04.139Z,1.42
2022-12-24T18:09:31.464Z,1.88
2022-12-24T18:11:58.713Z,0.75
2022-12-24T18:14:26.119Z,0.65
2022-12-24T18:16:53.359Z,0.93
2022-12-24T18:19:20.545Z,1.23
2022-12-24T18:21:47.732Z,0.73
2022-12-24T18:24:14.963Z,0.90
2022-12-24T18:26:43.988Z,0.60
2022-12-24T18:29:11.132Z,0.60
2022-12-24T18:31:38.340Z,0.52
2022-12-24T18:34:06.869Z,0.80
2022-12-24T18:36:34.441Z,0.98
2022-12-24T18:39:01.796Z,1.60
2022-12-24T18:41:30.226Z,1.90
2022-12-24T18:43:57.840Z,1.70
2022-12-24T18:46:26.581Z,0.73
2022-12-24T18:48:53.974Z,0.85
2022-12-24T18:51:22.310Z,1.42
2022-12-24T18:53:49.594Z,0.77
2022-12-24T18:56:18.669Z,0.93
2022-12-24T18:58:46.399Z,0.98
2022-12-24T19:01:15.384Z,0.77
2022-12-24T19:03:42.746Z,0.98
2022-12-24T19:06:10.004Z,0.88
2022-12-24T19:11:24.984Z,1.17
2022-12-24T19:13:55.188Z,0.57
2022-12-24T19:16:22.514Z,1.05
2022-12-24T19:18:49.955Z,0.77
2022-12-24T19:21:17.849Z,0.93
2022-12-24T19:23:45.885Z,1.20
2022-12-24T19:26:13.912Z,1.27
2022-12-24T19:28:41.640Z,1.05
2022-12-24T19:31:12.995Z,1.10
2022-12-24T19:33:44.466Z,1.20
2022-12-24T19:36:13.449Z,1.40
2022-12-24T19:38:40.973Z,1.10
2022-12-24T19:41:08.960Z,1.23
2022-12-24T19:43:43.954Z,1.27
2022-12-24T19:46:12.436Z,1.25
2022-12-24T19:48:39.809Z,1.00
2022-12-24T19:51:08.526Z,1.23
2022-12-24T19:53:36.100Z,1.02
2022-12-24T19:56:03.366Z,1.38
2022-12-24T19:58:32.668Z,0.93
2022-12-24T20:01:12.790Z,1.10
2022-12-24T20:03:41.997Z,1.63
2022-12-24T20:06:09.553Z,1.20
2022-12-24T20:08:37.343Z,0.90
2022-12-24T20:11:06.544Z,2.38
2022-12-24T20:13:34.710Z,0.98
2022-12-24T20:16:21.089Z,1.48
2022-12-24T20:18:54.949Z,1.40
2022-12-24T20:21:22.788Z,1.67
2022-12-24T20:23:50.198Z,0.90
2022-12-24T20:26:18.335Z,1.85
2022-12-24T20:28:46.080Z,1.08
2022-12-24T20:31:21.011Z,1.40
2022-12-24T20:33:48.622Z,2.30
2022-12-24T20:36:16.885Z,1.30
2022-12-24T20:38:44.679Z,1.52
2022-12-24T20:41:13.691Z,1.70
2022-12-24T20:43:47.447Z,1.80
2022-12-24T20:46:15.611Z,2.55
2022-12-24T20:48:42.907Z,1.20
2022-12-24T20:51:11.237Z,1.35
2022-12-24T20:53:39.252Z,1.40
2022-12-24T20:56:06.806Z,1.60
2022-12-24T20:58:34.103Z,1.70
2022-12-24T21:01:01.367Z,2.13
2022-12-24T21:03:28.618Z,1.88
2022-12-24T21:05:55.854Z,1.85
2022-12-24T21:08:23.038Z,1.52
2022-12-24T21:11:10.182Z,1.00
2022-12-24T21:13:37.483Z,1.35
2022-12-24T21:16:04.884Z,1.60
2022-12-24T21:18:32.068Z,1.40
2022-12-24T21:20:59.217Z,1.25
2022-12-24T21:23:26.431Z,1.67
2022-12-24T21:25:59.979Z,1.48
2022-12-24T21:28:27.192Z,1.50
2022-12-24T21:30:54.404Z,1.35
2022-12-24T21:33:21.667Z,1.20
2022-12-24T21:35:48.942Z,1.27
2022-12-24T21:38:16.185Z,1.95
2022-12-24T21:40:43.363Z,0.95
2022-12-24T21:43:10.541Z,1.35
2022-12-24T21:45:40.951Z,1.70
2022-12-24T21:48:28.090Z,1.95
2022-12-24T21:50:55.232Z,1.63
2022-12-24T21:53:41.052Z,1.60
2022-12-24T21:56:09.057Z,1.95
2022-12-24T21:58:36.241Z,1.63
2022-12-24T22:01:10.297Z,1.30
2022-12-24T22:03:40.897Z,1.02
2022-12-24T22:06:08.655Z,1.42
2022-12-24T22:08:54.844Z,1.98
2022-12-24T22:11:40.649Z,1.00
2022-12-24T22:14:07.813Z,1.52
2022-12-24T22:16:35.072Z,1.17
2022-12-24T22:19:02.282Z,1.50
2022-12-24T22:21:29.453Z,1.02
2022-12-24T22:23:56.731Z,1.50
2022-12-24T22:26:23.975Z,1.50
2022-12-24T22:28:51.133Z,1.55
2022-12-24T22:31:23.804Z,1.35
2022-12-24T22:36:18.115Z,1.55
2022-12-24T22:38:45.694Z,1.48
2022-12-24T22:41:14.127Z,1.27
2022-12-24T22:43:41.812Z,1.30
2022-12-24T22:46:10.018Z,2.08
2022-12-24T22:48:37.631Z,1.15
2022-12-24T22:51:08.620Z,1.50
2022-12-24T22:53:36.325Z,1.10
2022-12-24T22:56:03.742Z,1.08
2022-12-24T22:58:31.036Z,1.15
2022-12-24T23:00:58.373Z,1.65
2022-12-24T23:03:25.665Z,1.45
2022-12-24T23:05:57.555Z,1.63
2022-12-24T23:08:25.125Z,1.10
2022-12-24T23:10:52.953Z,1.52
2022-12-24T23:13:40.086Z,1.40
2022-12-24T23:16:07.666Z,2.28
2022-12-24T23:18:34.927Z,1.33
2022-12-24T23:21:05.352Z,1.10
2022-12-24T23:23:36.887Z,1.27
2022-12-24T23:26:09.436Z,1.00
2022-12-24T23:28:37.306Z,1.30
2022-12-24T23:31:04.812Z,1.00
2022-12-24T23:33:32.003Z,0.98
2022-12-24T23:35:59.160Z,1.77
2022-12-24T23:38:26.335Z,0.98
2022-12-24T23:41:00.127Z,1.20
2022-12-24T23:43:27.716Z,0.70
2022-12-24T23:45:55.274Z,1.20
2022-12-24T23:48:23.559Z,1.30
2022-12-24T23:50:50.944Z,1.15
2022-12-24T23:53:19.062Z,1.20
2022-12-24T23:55:46.535Z,1.42
2022-12-24T23:58:14.606Z,1.05
